Pelican of London — MWAQ — position and weather

sailwx.info

Track history (hours):
 
Tides and Currents Weather Stations Pressure Air Temp Water Temp Dewpoint Dewpoint Depression Visibility Wind Speed Wind Dir Waves Ship Positions

Pelican of London

Ship's website: http://www.adventureundersail.com/

Last reported at 2017-Apr-30 04:43 UTC. Time now 2017-Apr-30 05:18 UTC.
Position N 50°37' W 002°27'.

Length 35 m; draft 4.1 m.

Type: Sailing vessel. MMSI: 235057366.

Date/timePositionNaut miles runAvg speedWind from/ knotsBaromVisibWave heightAir tempDewpointWater temp
2017-Apr-30 04:43N 50°37' W 002°27'0 0.0
2017-Apr-30 04:13N 50°37' W 002°27'0 0.0
2017-Apr-30 03:58N 50°37' W 002°27'0 0.0
2017-Apr-30 02:40N 50°37' W 002°27'0 0.0
2017-Apr-30 02:25N 50°37' W 002°27'0 0.0
2017-Apr-30 01:58N 50°37' W 002°27'0 0.0
2017-Apr-30 01:28N 50°37' W 002°27'0 0.0
2017-Apr-29 23:37N 50°37' W 002°27'0 0.0
2017-Apr-29 23:28N 50°37' W 002°27'0 0.0
2017-Apr-29 22:58N 50°37' W 002°27'0 0.0
2017-Apr-29 22:19N 50°37' W 002°27'0 0.0
2017-Apr-29 21:58N 50°37' W 002°27'0 0.0
2017-Apr-29 21:25N 50°37' W 002°27'0 0.0
2017-Apr-29 20:58N 50°37' W 002°27'0 0.0
2017-Apr-29 20:22N 50°37' W 002°27'0 0.0
2017-Apr-29 17:31N 50°37' W 002°27'  
2017-Apr-27 12:57N 50°33' W 002°05'5 0.2
2017-Apr-26 15:22N 50°33' W 001°57'2 5.4
2017-Apr-26 15:00N 50°34' W 001°55'3 6.1
2017-Apr-26 14:30N 50°35' W 001°50'7 6.8
2017-Apr-26 13:30N 50°38' W 001°41'3 6.1
2017-Apr-26 13:00N 50°39' W 001°36'3 5.0
2017-Apr-26 12:30N 50°39' W 001°32'1 1.9
2017-Apr-26 11:58N 50°40' W 001°31'0 0.0
2017-Apr-26 11:30N 50°40' W 001°31'0 0.0
2017-Apr-26 11:00N 50°40' W 001°31'0 0.0
2017-Apr-26 10:31N 50°40' W 001°31'0 0.0
2017-Apr-26 10:00N 50°40' W 001°31'0 0.0
2017-Apr-26 09:30N 50°40' W 001°31'0 0.0
2017-Apr-26 09:00N 50°40' W 001°31'0 0.0
2017-Apr-26 08:22N 50°40' W 001°31'0 0.0
2017-Apr-26 07:01N 50°40' W 001°31'0 0.0
2017-Apr-26 06:57N 50°40' W 001°31'0 0.0
2017-Apr-26 05:56N 50°40' W 001°31'0 0.0
2017-Apr-26 05:31N 50°40' W 001°31'0 0.0
2017-Apr-26 05:01N 50°40' W 001°31'0 0.0
2017-Apr-26 04:30N 50°40' W 001°31'0 0.0
2017-Apr-26 03:51N 50°40' W 001°31'0 0.0
2017-Apr-26 03:27N 50°40' W 001°31'0 0.0
2017-Apr-26 01:55N 50°40' W 001°31'0 0.0
2017-Apr-26 01:30N 50°40' W 001°31'0 0.0
2017-Apr-26 01:00N 50°40' W 001°31'0 0.0
2017-Apr-26 00:31N 50°40' W 001°31'0 0.0
2017-Apr-25 23:59N 50°40' W 001°31'0 0.0
2017-Apr-25 23:18N 50°40' W 001°31'0 0.0
2017-Apr-25 22:58N 50°40' W 001°31'0 0.0
2017-Apr-25 22:31N 50°40' W 001°31'0 0.0
2017-Apr-25 22:00N 50°40' W 001°31'0 0.0
2017-Apr-25 21:30N 50°40' W 001°31'0 0.0
2017-Apr-25 20:59N 50°40' W 001°31'0 0.0
2017-Apr-25 20:25N 50°40' W 001°31'6 2.8
2017-Apr-25 18:11N 50°35' W 001°25'1 5.2
2017-Apr-25 17:59N 50°35' W 001°27'5 4.0
2017-Apr-25 16:45N 50°36' W 001°34'2 6.4
2017-Apr-25 16:30N 50°35' W 001°37'2 4.5
2017-Apr-25 16:00N 50°35' W 001°40'2 3.9
2017-Apr-25 15:30N 50°35' W 001°43'2 4.2
2017-Apr-25 15:00N 50°35' W 001°47'2 3.8
2017-Apr-25 14:31N 50°35' W 001°50'3 2.8
2017-Apr-25 13:30N 50°35' W 001°54'1 1.7
2017-Apr-25 13:00N 50°35' W 001°55'1 2.5
2017-Apr-25 12:31N 50°36' W 001°56'1 1.3
2017-Apr-25 12:00N 50°37' W 001°57'0 0.0
2017-Apr-25 11:30N 50°37' W 001°57'0 0.0
2017-Apr-25 11:00N 50°37' W 001°57'0 0.0
2017-Apr-25 10:30N 50°37' W 001°57'0 0.0
2017-Apr-25 10:00N 50°37' W 001°57'0 0.0
2017-Apr-25 09:30N 50°37' W 001°57'0 0.0
2017-Apr-25 09:00N 50°37' W 001°57'0 0.0
2017-Apr-25 08:30N 50°37' W 001°57'0 0.0
2017-Apr-25 08:00N 50°37' W 001°57'0 0.0
2017-Apr-25 07:30N 50°37' W 001°57'0 0.0
2017-Apr-25 07:00N 50°37' W 001°57'0 0.0
2017-Apr-25 06:30N 50°37' W 001°57'0 0.0
2017-Apr-25 06:00N 50°37' W 001°57'0 0.0
2017-Apr-25 05:30N 50°37' W 001°57'0 0.0
2017-Apr-25 05:00N 50°37' W 001°57'0 0.0
2017-Apr-25 04:30N 50°37' W 001°57'0 0.1
2017-Apr-25 04:00N 50°37' W 001°57'0 0.0
2017-Apr-25 03:30N 50°37' W 001°57'0 0.0
2017-Apr-25 03:00N 50°37' W 001°57'0 0.0
2017-Apr-25 02:30N 50°37' W 001°57'0 0.0
2017-Apr-25 02:00N 50°37' W 001°57'0 0.0
2017-Apr-25 01:30N 50°37' W 001°57'0 0.0
2017-Apr-25 00:54N 50°37' W 001°57'0 0.0
2017-Apr-25 00:30N 50°37' W 001°57'0 0.0
2017-Apr-25 00:00N 50°37' W 001°57'0 0.0
2017-Apr-24 23:30N 50°37' W 001°57'0 0.0
2017-Apr-24 23:00N 50°37' W 001°57'0 0.0
2017-Apr-24 22:30N 50°37' W 001°57'0 0.0
2017-Apr-24 22:00N 50°37' W 001°57'0 0.0
2017-Apr-24 21:30N 50°37' W 001°57'0 0.0
2017-Apr-24 20:54N 50°37' W 001°57'0 0.0
2017-Apr-24 20:30N 50°37' W 001°57'0 0.0
2017-Apr-24 19:57N 50°37' W 001°57'0 0.1
2017-Apr-24 19:30N 50°37' W 001°57'2 3.5
2017-Apr-24 18:59N 50°35' W 001°55'20 3.7
2017-Apr-24 13:38N 50°37' W 002°27'0 0.0
2017-Apr-24 13:29N 50°37' W 002°27'0 0.0
2017-Apr-24 13:00N 50°37' W 002°27'0 0.0
2017-Apr-24 12:30N 50°37' W 002°27'0 0.0
2017-Apr-24 11:01N 50°37' W 002°27'0 0.0
2017-Apr-24 10:40N 50°37' W 002°27'0 0.0
2017-Apr-24 10:23N 50°37' W 002°27'0 0.0
2017-Apr-24 09:46N 50°37' W 002°27'0 0.0
2017-Apr-24 09:29N 50°37' W 002°27'0 0.0
2017-Apr-24 08:59N 50°37' W 002°27'0 0.0
2017-Apr-24 07:12N 50°37' W 002°27'0 0.0
2017-Apr-24 06:52N 50°37' W 002°27'0 0.0
2017-Apr-24 06:29N 50°37' W 002°27'0 0.0
2017-Apr-24 05:57N 50°37' W 002°27'0 0.0
2017-Apr-24 05:28N 50°37' W 002°27'0 0.0
2017-Apr-24 05:00N 50°37' W 002°27'0 0.0
2017-Apr-24 04:30N 50°37' W 002°27'0 0.0
2017-Apr-24 04:00N 50°37' W 002°27'0 0.0
2017-Apr-24 03:30N 50°37' W 002°27'0 0.0
2017-Apr-24 03:00N 50°37' W 002°27'0 0.0
2017-Apr-24 02:30N 50°37' W 002°27'0 0.0
2017-Apr-24 02:00N 50°37' W 002°27'0 0.0
2017-Apr-24 01:30N 50°37' W 002°27'0 0.0
2017-Apr-24 00:59N 50°37' W 002°27'0 0.0
2017-Apr-24 00:23N 50°37' W 002°27'0 0.0
2017-Apr-23 23:58N 50°37' W 002°27'0 0.0
2017-Apr-23 23:31N 50°37' W 002°27'0 0.0
2017-Apr-23 23:00N 50°37' W 002°27'0 0.0
2017-Apr-23 22:28N 50°37' W 002°27'0 0.0
2017-Apr-23 20:41N 50°37' W 002°27'0 0.0
2017-Apr-23 20:27N 50°37' W 002°27'0 0.0
2017-Apr-23 19:52N 50°37' W 002°27'0 0.0
2017-Apr-23 19:20N 50°37' W 002°27'0 0.0
2017-Apr-23 19:00N 50°37' W 002°27'0 0.0
2017-Apr-23 18:23N 50°37' W 002°27'0 0.0
2017-Apr-23 17:57N 50°37' W 002°27'0 0.0
2017-Apr-23 17:28N 50°37' W 002°27'0 0.0
2017-Apr-23 16:31N 50°37' W 002°27'0 0.0
2017-Apr-23 16:26N 50°37' W 002°27'0 0.0
2017-Apr-23 15:59N 50°37' W 002°27'0 0.0
2017-Apr-23 15:31N 50°37' W 002°27'0 0.0
2017-Apr-23 12:50N 50°37' W 002°27'0 0.0
2017-Apr-23 12:30N 50°37' W 002°27'0 0.0
2017-Apr-23 12:00N 50°37' W 002°27'0 0.0
2017-Apr-23 11:05N 50°37' W 002°27'0 0.0
2017-Apr-23 11:00N 50°37' W 002°27'0 0.0
2017-Apr-23 09:21N 50°37' W 002°27'0 0.0
2017-Apr-23 08:54N 50°37' W 002°27'0 0.0
2017-Apr-23 08:30N 50°37' W 002°27'0 0.0
2017-Apr-23 07:41N 50°37' W 002°27'0 0.0
2017-Apr-23 07:18N 50°37' W 002°27'0 0.0
2017-Apr-23 07:00N 50°37' W 002°27'0 0.0
2017-Apr-23 06:30N 50°37' W 002°27'0 0.0
2017-Apr-23 06:01N 50°37' W 002°27'0 0.0
2017-Apr-23 05:31N 50°37' W 002°27'0 0.0
2017-Apr-23 05:01N 50°37' W 002°27'0 0.0
2017-Apr-23 04:31N 50°37' W 002°27'0 0.0
2017-Apr-23 04:00N 50°37' W 002°27'0 0.0
2017-Apr-23 03:30N 50°37' W 002°27'0 0.0
2017-Apr-23 03:01N 50°37' W 002°27'0 0.0
2017-Apr-23 02:30N 50°37' W 002°27'0 0.0
2017-Apr-23 02:00N 50°37' W 002°27'0 0.0
2017-Apr-23 01:30N 50°37' W 002°27'0 0.0
2017-Apr-23 01:00N 50°37' W 002°27'0 0.0
2017-Apr-23 00:31N 50°37' W 002°27'0 0.0
2017-Apr-23 00:01N 50°37' W 002°27'0 0.0
2017-Apr-22 23:30N 50°37' W 002°27'0 0.0
2017-Apr-22 23:01N 50°37' W 002°27'0 0.0
2017-Apr-22 22:31N 50°37' W 002°27'0 0.0
2017-Apr-22 21:59N 50°37' W 002°27'0 0.0
2017-Apr-22 07:59N 50°37' W 002°27'0 0.0
2017-Apr-22 07:20N 50°37' W 002°27'0 0.0
2017-Apr-22 07:00N 50°37' W 002°27'0 0.0
2017-Apr-22 06:31N 50°37' W 002°27'0 0.0
2017-Apr-22 06:01N 50°37' W 002°27'0 0.0
2017-Apr-22 05:31N 50°37' W 002°27'0 0.0
2017-Apr-22 05:00N 50°37' W 002°27'0 0.0
2017-Apr-22 04:30N 50°37' W 002°27'0 0.0
2017-Apr-22 03:59N 50°37' W 002°27'0 0.0
2017-Apr-22 03:29N 50°37' W 002°27'0 0.0
2017-Apr-22 02:55N 50°37' W 002°27'0 0.0
2017-Apr-22 02:30N 50°37' W 002°27'0 0.0
2017-Apr-22 00:57N 50°37' W 002°27'0 0.0
2017-Apr-21 19:20N 50°37' W 002°27'0 0.0
2017-Apr-21 16:51N 50°37' W 002°27'0 0.0
2017-Apr-21 16:28N 50°37' W 002°27'0 0.0
2017-Apr-21 16:00N 50°37' W 002°27'0 0.0
2017-Apr-21 15:30N 50°37' W 002°27'0 0.0
2017-Apr-21 15:00N 50°37' W 002°27'0 0.0
2017-Apr-21 14:29N 50°37' W 002°27'0 0.5
2017-Apr-21 13:30N 50°37' W 002°26'0 0.0
2017-Apr-20 19:56N 50°37' W 002°27'  
Track history (hours):
 
Tides and Currents Weather Stations Pressure Air Temp Water Temp Dewpoint Dewpoint Depression Visibility Wind Speed Wind Dir Waves Ship Positions

Pelican of London

Ship's website: http://www.adventureundersail.com/

Last reported at 2017-Apr-30 04:43 UTC. Time now 2017-Apr-30 05:18 UTC.
Position N 50°37' W 002°27'.

Length 35 m; draft 4.1 m.

Type: Sailing vessel. MMSI: 235057366.

Date/timePositionNaut miles runAvg speedWind from/ knotsBaromVisibWave heightAir tempDewpointWater temp
2017-Apr-30 04:43N 50°37' W 002°27'0 0.0
2017-Apr-30 04:13N 50°37' W 002°27'0 0.0
2017-Apr-30 03:58N 50°37' W 002°27'0 0.0
2017-Apr-30 02:40N 50°37' W 002°27'0 0.0
2017-Apr-30 02:25N 50°37' W 002°27'0 0.0
2017-Apr-30 01:58N 50°37' W 002°27'0 0.0
2017-Apr-30 01:28N 50°37' W 002°27'0 0.0
2017-Apr-29 23:37N 50°37' W 002°27'0 0.0
2017-Apr-29 23:28N 50°37' W 002°27'0 0.0
2017-Apr-29 22:58N 50°37' W 002°27'0 0.0
2017-Apr-29 22:19N 50°37' W 002°27'0 0.0
2017-Apr-29 21:58N 50°37' W 002°27'0 0.0
2017-Apr-29 21:25N 50°37' W 002°27'0 0.0
2017-Apr-29 20:58N 50°37' W 002°27'0 0.0
2017-Apr-29 20:22N 50°37' W 002°27'0 0.0
2017-Apr-29 17:31N 50°37' W 002°27'  
2017-Apr-27 12:57N 50°33' W 002°05'5 0.2
2017-Apr-26 15:22N 50°33' W 001°57'2 5.4
2017-Apr-26 15:00N 50°34' W 001°55'3 6.1
2017-Apr-26 14:30N 50°35' W 001°50'7 6.8
2017-Apr-26 13:30N 50°38' W 001°41'3 6.1
2017-Apr-26 13:00N 50°39' W 001°36'3 5.0
2017-Apr-26 12:30N 50°39' W 001°32'1 1.9
2017-Apr-26 11:58N 50°40' W 001°31'0 0.0
2017-Apr-26 11:30N 50°40' W 001°31'0 0.0
2017-Apr-26 11:00N 50°40' W 001°31'0 0.0
2017-Apr-26 10:31N 50°40' W 001°31'0 0.0
2017-Apr-26 10:00N 50°40' W 001°31'0 0.0
2017-Apr-26 09:30N 50°40' W 001°31'0 0.0
2017-Apr-26 09:00N 50°40' W 001°31'0 0.0
2017-Apr-26 08:22N 50°40' W 001°31'0 0.0
2017-Apr-26 07:01N 50°40' W 001°31'0 0.0
2017-Apr-26 06:57N 50°40' W 001°31'0 0.0
2017-Apr-26 05:56N 50°40' W 001°31'0 0.0
2017-Apr-26 05:31N 50°40' W 001°31'0 0.0
2017-Apr-26 05:01N 50°40' W 001°31'0 0.0
2017-Apr-26 04:30N 50°40' W 001°31'0 0.0
2017-Apr-26 03:51N 50°40' W 001°31'0 0.0
2017-Apr-26 03:27N 50°40' W 001°31'0 0.0
2017-Apr-26 01:55N 50°40' W 001°31'0 0.0
2017-Apr-26 01:30N 50°40' W 001°31'0 0.0
2017-Apr-26 01:00N 50°40' W 001°31'0 0.0
2017-Apr-26 00:31N 50°40' W 001°31'0 0.0
2017-Apr-25 23:59N 50°40' W 001°31'0 0.0
2017-Apr-25 23:18N 50°40' W 001°31'0 0.0
2017-Apr-25 22:58N 50°40' W 001°31'0 0.0
2017-Apr-25 22:31N 50°40' W 001°31'0 0.0
2017-Apr-25 22:00N 50°40' W 001°31'0 0.0
2017-Apr-25 21:30N 50°40' W 001°31'0 0.0
2017-Apr-25 20:59N 50°40' W 001°31'0 0.0
2017-Apr-25 20:25N 50°40' W 001°31'6 2.8
2017-Apr-25 18:11N 50°35' W 001°25'1 5.2
2017-Apr-25 17:59N 50°35' W 001°27'5 4.0
2017-Apr-25 16:45N 50°36' W 001°34'2 6.4
2017-Apr-25 16:30N 50°35' W 001°37'2 4.5
2017-Apr-25 16:00N 50°35' W 001°40'2 3.9
2017-Apr-25 15:30N 50°35' W 001°43'2 4.2
2017-Apr-25 15:00N 50°35' W 001°47'2 3.8
2017-Apr-25 14:31N 50°35' W 001°50'3 2.8
2017-Apr-25 13:30N 50°35' W 001°54'1 1.7
2017-Apr-25 13:00N 50°35' W 001°55'1 2.5
2017-Apr-25 12:31N 50°36' W 001°56'1 1.3
2017-Apr-25 12:00N 50°37' W 001°57'0 0.0
2017-Apr-25 11:30N 50°37' W 001°57'0 0.0
2017-Apr-25 11:00N 50°37' W 001°57'0 0.0
2017-Apr-25 10:30N 50°37' W 001°57'0 0.0
2017-Apr-25 10:00N 50°37' W 001°57'0 0.0
2017-Apr-25 09:30N 50°37' W 001°57'0 0.0
2017-Apr-25 09:00N 50°37' W 001°57'0 0.0
2017-Apr-25 08:30N 50°37' W 001°57'0 0.0
2017-Apr-25 08:00N 50°37' W 001°57'0 0.0
2017-Apr-25 07:30N 50°37' W 001°57'0 0.0
2017-Apr-25 07:00N 50°37' W 001°57'0 0.0
2017-Apr-25 06:30N 50°37' W 001°57'0 0.0
2017-Apr-25 06:00N 50°37' W 001°57'0 0.0
2017-Apr-25 05:30N 50°37' W 001°57'0 0.0
2017-Apr-25 05:00N 50°37' W 001°57'0 0.0
2017-Apr-25 04:30N 50°37' W 001°57'0 0.1
2017-Apr-25 04:00N 50°37' W 001°57'0 0.0
2017-Apr-25 03:30N 50°37' W 001°57'0 0.0
2017-Apr-25 03:00N 50°37' W 001°57'0 0.0
2017-Apr-25 02:30N 50°37' W 001°57'0 0.0
2017-Apr-25 02:00N 50°37' W 001°57'0 0.0
2017-Apr-25 01:30N 50°37' W 001°57'0 0.0
2017-Apr-25 00:54N 50°37' W 001°57'0 0.0
2017-Apr-25 00:30N 50°37' W 001°57'0 0.0
2017-Apr-25 00:00N 50°37' W 001°57'0 0.0
2017-Apr-24 23:30N 50°37' W 001°57'0 0.0
2017-Apr-24 23:00N 50°37' W 001°57'0 0.0
2017-Apr-24 22:30N 50°37' W 001°57'0 0.0
2017-Apr-24 22:00N 50°37' W 001°57'0 0.0
2017-Apr-24 21:30N 50°37' W 001°57'0 0.0
2017-Apr-24 20:54N 50°37' W 001°57'0 0.0
2017-Apr-24 20:30N 50°37' W 001°57'0 0.0
2017-Apr-24 19:57N 50°37' W 001°57'0 0.1
2017-Apr-24 19:30N 50°37' W 001°57'2 3.5
2017-Apr-24 18:59N 50°35' W 001°55'20 3.7
2017-Apr-24 13:38N 50°37' W 002°27'0 0.0
2017-Apr-24 13:29N 50°37' W 002°27'0 0.0
2017-Apr-24 13:00N 50°37' W 002°27'0 0.0
2017-Apr-24 12:30N 50°37' W 002°27'0 0.0
2017-Apr-24 11:01N 50°37' W 002°27'0 0.0
2017-Apr-24 10:40N 50°37' W 002°27'0 0.0
2017-Apr-24 10:23N 50°37' W 002°27'0 0.0
2017-Apr-24 09:46N 50°37' W 002°27'0 0.0
2017-Apr-24 09:29N 50°37' W 002°27'0 0.0
2017-Apr-24 08:59N 50°37' W 002°27'0 0.0
2017-Apr-24 07:12N 50°37' W 002°27'0 0.0
2017-Apr-24 06:52N 50°37' W 002°27'0 0.0
2017-Apr-24 06:29N 50°37' W 002°27'0 0.0
2017-Apr-24 05:57N 50°37' W 002°27'0 0.0
2017-Apr-24 05:28N 50°37' W 002°27'0 0.0
2017-Apr-24 05:00N 50°37' W 002°27'0 0.0
2017-Apr-24 04:30N 50°37' W 002°27'0 0.0
2017-Apr-24 04:00N 50°37' W 002°27'0 0.0
2017-Apr-24 03:30N 50°37' W 002°27'0 0.0
2017-Apr-24 03:00N 50°37' W 002°27'0 0.0
2017-Apr-24 02:30N 50°37' W 002°27'0 0.0
2017-Apr-24 02:00N 50°37' W 002°27'0 0.0
2017-Apr-24 01:30N 50°37' W 002°27'0 0.0
2017-Apr-24 00:59N 50°37' W 002°27'0 0.0
2017-Apr-24 00:23N 50°37' W 002°27'0 0.0
2017-Apr-23 23:58N 50°37' W 002°27'0 0.0
2017-Apr-23 23:31N 50°37' W 002°27'0 0.0
2017-Apr-23 23:00N 50°37' W 002°27'0 0.0
2017-Apr-23 22:28N 50°37' W 002°27'0 0.0
2017-Apr-23 20:41N 50°37' W 002°27'0 0.0
2017-Apr-23 20:27N 50°37' W 002°27'0 0.0
2017-Apr-23 19:52N 50°37' W 002°27'0 0.0
2017-Apr-23 19:20N 50°37' W 002°27'0 0.0
2017-Apr-23 19:00N 50°37' W 002°27'0 0.0
2017-Apr-23 18:23N 50°37' W 002°27'0 0.0
2017-Apr-23 17:57N 50°37' W 002°27'0 0.0
2017-Apr-23 17:28N 50°37' W 002°27'0 0.0
2017-Apr-23 16:31N 50°37' W 002°27'0 0.0
2017-Apr-23 16:26N 50°37' W 002°27'0 0.0
2017-Apr-23 15:59N 50°37' W 002°27'0 0.0
2017-Apr-23 15:31N 50°37' W 002°27'0 0.0
2017-Apr-23 12:50N 50°37' W 002°27'0 0.0
2017-Apr-23 12:30N 50°37' W 002°27'0 0.0
2017-Apr-23 12:00N 50°37' W 002°27'0 0.0
2017-Apr-23 11:05N 50°37' W 002°27'0 0.0
2017-Apr-23 11:00N 50°37' W 002°27'0 0.0
2017-Apr-23 09:21N 50°37' W 002°27'0 0.0
2017-Apr-23 08:54N 50°37' W 002°27'0 0.0
2017-Apr-23 08:30N 50°37' W 002°27'0 0.0
2017-Apr-23 07:41N 50°37' W 002°27'0 0.0
2017-Apr-23 07:18N 50°37' W 002°27'0 0.0
2017-Apr-23 07:00N 50°37' W 002°27'0 0.0
2017-Apr-23 06:30N 50°37' W 002°27'0 0.0
2017-Apr-23 06:01N 50°37' W 002°27'0 0.0
2017-Apr-23 05:31N 50°37' W 002°27'0 0.0
2017-Apr-23 05:01N 50°37' W 002°27'0 0.0
2017-Apr-23 04:31N 50°37' W 002°27'0 0.0
2017-Apr-23 04:00N 50°37' W 002°27'0 0.0
2017-Apr-23 03:30N 50°37' W 002°27'0 0.0
2017-Apr-23 03:01N 50°37' W 002°27'0 0.0
2017-Apr-23 02:30N 50°37' W 002°27'0 0.0
2017-Apr-23 02:00N 50°37' W 002°27'0 0.0
2017-Apr-23 01:30N 50°37' W 002°27'0 0.0
2017-Apr-23 01:00N 50°37' W 002°27'0 0.0
2017-Apr-23 00:31N 50°37' W 002°27'0 0.0
2017-Apr-23 00:01N 50°37' W 002°27'0 0.0
2017-Apr-22 23:30N 50°37' W 002°27'0 0.0
2017-Apr-22 23:01N 50°37' W 002°27'0 0.0
2017-Apr-22 22:31N 50°37' W 002°27'0 0.0
2017-Apr-22 21:59N 50°37' W 002°27'0 0.0
2017-Apr-22 07:59N 50°37' W 002°27'0 0.0
2017-Apr-22 07:20N 50°37' W 002°27'0 0.0
2017-Apr-22 07:00N 50°37' W 002°27'0 0.0
2017-Apr-22 06:31N 50°37' W 002°27'0 0.0
2017-Apr-22 06:01N 50°37' W 002°27'0 0.0
2017-Apr-22 05:31N 50°37' W 002°27'0 0.0
2017-Apr-22 05:00N 50°37' W 002°27'0 0.0
2017-Apr-22 04:30N 50°37' W 002°27'0 0.0
2017-Apr-22 03:59N 50°37' W 002°27'0 0.0
2017-Apr-22 03:29N 50°37' W 002°27'0 0.0
2017-Apr-22 02:55N 50°37' W 002°27'0 0.0
2017-Apr-22 02:30N 50°37' W 002°27'0 0.0
2017-Apr-22 00:57N 50°37' W 002°27'0 0.0
2017-Apr-21 19:20N 50°37' W 002°27'0 0.0
2017-Apr-21 16:51N 50°37' W 002°27'0 0.0
2017-Apr-21 16:28N 50°37' W 002°27'0 0.0
2017-Apr-21 16:00N 50°37' W 002°27'0 0.0
2017-Apr-21 15:30N 50°37' W 002°27'0 0.0
2017-Apr-21 15:00N 50°37' W 002°27'0 0.0
2017-Apr-21 14:29N 50°37' W 002°27'0 0.5
2017-Apr-21 13:30N 50°37' W 002°26'0 0.0
2017-Apr-20 19:56N 50°37' W 002°27'  

Dump ship's entire track history